createdAt,value
2019-05-01T00:00:46.489Z,93943.94
2019-05-01T00:03:19.692Z,93945.49
2019-05-01T00:05:58.844Z,93944.20
2019-05-01T00:08:27.561Z,93944.30
2019-05-01T00:10:57.049Z,93944.26
2019-05-01T00:13:25.553Z,93937.09
2019-05-01T00:15:55.023Z,93936.88
2019-05-01T00:18:23.749Z,93936.16
2019-05-01T00:20:52.206Z,93932.52
2019-05-01T00:23:20.604Z,93931.17
2019-05-01T00:25:49.299Z,93924.74
2019-05-01T00:28:17.992Z,93929.93
2019-05-01T00:30:46.662Z,93917.92
2019-05-01T00:33:15.144Z,93924.74
2019-05-01T00:35:43.597Z,93913.72
2019-05-01T00:38:12.101Z,93918.37
2019-05-01T00:40:40.568Z,93914.27
2019-05-01T00:43:09.028Z,93906.45
2019-05-01T00:45:37.503Z,93897.61
2019-05-01T00:48:05.936Z,93910.31
2019-05-01T00:50:34.364Z,93902.82
2019-05-01T00:53:03.265Z,93906.67
2019-05-01T00:55:39.396Z,93908.82
2019-05-01T00:58:18.378Z,93906.59
2019-05-01T01:01:04.675Z,93901.04
2019-05-01T01:03:33.426Z,93898.41
2019-05-01T01:06:02.263Z,93897.46
2019-05-01T01:08:30.756Z,93894.89
2019-05-01T01:10:59.217Z,93895.20
2019-05-01T01:13:27.739Z,93890.89
2019-05-01T01:15:56.200Z,93891.81
2019-05-01T01:18:24.724Z,93891.44
2019-05-01T01:20:53.545Z,93894.95
2019-05-01T01:23:22.559Z,93893.63
2019-05-01T01:25:51.558Z,93892.64
2019-05-01T01:28:20.240Z,93890.94
2019-05-01T01:30:55.991Z,93890.09
2019-05-01T01:33:19.294Z,93887.59
2019-05-01T01:35:47.874Z,93879.83
2019-05-01T01:38:16.381Z,93886.91
2019-05-01T01:40:45.087Z,93876.86
2019-05-01T01:43:31.635Z,93855.66
2019-05-01T01:46:01.941Z,93855.66
2019-05-01T01:48:30.525Z,93877.44
2019-05-01T01:50:59.321Z,93877.13
2019-05-01T01:53:27.990Z,93867.35
2019-05-01T01:55:56.750Z,93867.35
2019-05-01T01:58:26.286Z,93847.79
2019-05-01T02:01:08.737Z,93860.64
2019-05-01T02:03:28.504Z,93843.35
2019-05-01T02:05:56.994Z,93843.35
2019-05-01T02:08:25.578Z,93864.00
2019-05-01T02:10:54.143Z,93862.17
2019-05-01T02:13:22.974Z,93861.66
2019-05-01T02:15:51.539Z,93859.89
2019-05-01T02:18:20.031Z,93860.84
2019-05-01T02:20:48.517Z,93858.25
2019-05-01T02:23:16.937Z,93856.72
2019-05-01T02:25:45.463Z,93847.01
2019-05-01T02:28:28.329Z,93849.56
2019-05-01T02:31:27.569Z,93852.53
2019-05-01T02:33:48.265Z,93845.09
2019-05-01T02:36:19.220Z,93848.38
2019-05-01T02:38:50.065Z,93846.63
2019-05-01T02:41:20.715Z,93846.63
2019-05-01T02:43:51.982Z,93846.94
2019-05-01T02:46:22.936Z,93844.59
2019-05-01T02:49:12.488Z,93846.02
2019-05-01T02:51:43.082Z,93825.06
2019-05-01T02:54:13.788Z,93839.20
2019-05-01T02:56:46.017Z,93841.80
2019-05-01T02:59:15.305Z,93841.66
2019-05-01T03:01:47.862Z,93837.73
2019-05-01T03:04:15.437Z,93840.80
2019-05-01T03:06:44.351Z,93838.11
2019-05-01T03:09:13.447Z,93836.48
2019-05-01T03:11:44.188Z,93837.81
2019-05-01T03:14:15.686Z,93840.36
2019-05-01T03:16:46.025Z,93840.36
2019-05-01T03:19:24.888Z,93817.56
2019-05-01T03:21:58.062Z,93835.11
2019-05-01T03:24:28.388Z,93838.31
2019-05-01T03:26:57.967Z,93835.48
2019-05-01T03:29:26.550Z,93827.62
2019-05-01T03:32:15.717Z,93832.07
2019-05-01T03:34:25.572Z,93834.63
2019-05-01T03:36:54.638Z,93836.53
2019-05-01T03:39:24.018Z,93826.52
2019-05-01T03:41:53.635Z,93789.09
2019-05-01T03:44:22.130Z,93825.45
2019-05-01T03:46:51.009Z,93827.09
2019-05-01T03:49:19.710Z,93827.09
2019-05-01T03:51:48.274Z,93805.08
2019-05-01T03:54:17.068Z,93805.08
2019-05-01T03:56:45.674Z,93800.45
2019-05-01T03:59:14.346Z,93800.45
2019-05-01T04:01:44.585Z,93826.41
2019-05-01T04:04:15.138Z,93824.03
2019-05-01T04:06:43.708Z,93824.03
2019-05-01T04:09:12.934Z,93823.73
2019-05-01T04:11:41.508Z,93771.61
2019-05-01T04:14:10.372Z,93771.61
2019-05-01T04:16:39.963Z,93814.87
2019-05-01T04:19:08.517Z,93821.34
2019-05-01T04:21:44.799Z,93814.83
2019-05-01T04:24:13.442Z,93819.05
2019-05-01T04:26:41.995Z,93807.87
2019-05-01T04:29:14.926Z,93818.75
2019-05-01T04:31:54.213Z,93821.38
2019-05-01T04:34:42.554Z,93813.72
2019-05-01T04:37:13.369Z,93825.13
2019-05-01T04:39:42.153Z,93824.86
2019-05-01T04:42:10.761Z,93824.63
2019-05-01T04:44:39.437Z,93829.10
2019-05-01T04:47:08.074Z,93828.85
2019-05-01T04:49:36.935Z,93827.00
2019-05-01T04:52:05.691Z,93835.27
2019-05-01T04:54:34.271Z,93837.97
2019-05-01T04:57:03.048Z,93844.22
2019-05-01T04:59:31.624Z,93839.10
2019-05-01T05:02:02.252Z,93837.22
2019-05-01T05:04:30.896Z,93834.52
2019-05-01T05:07:00.474Z,93842.54
2019-05-01T05:09:39.520Z,93841.24
2019-05-01T05:12:10.439Z,93842.13
2019-05-01T05:14:44.056Z,93841.09
2019-05-01T05:17:14.304Z,93841.09
2019-05-01T05:19:43.056Z,93845.83
2019-05-01T05:22:11.844Z,93844.38
2019-05-01T05:24:40.524Z,93845.47
2019-05-01T05:27:10.524Z,93846.00
2019-05-01T05:29:39.084Z,93847.63
2019-05-01T05:32:08.387Z,93850.55
2019-05-01T05:34:38.431Z,93849.89
2019-05-01T05:37:15.993Z,93844.34
2019-05-01T05:39:47.473Z,93848.27
2019-05-01T05:42:16.343Z,93844.28
2019-05-01T05:44:47.105Z,93847.88
2019-05-01T05:47:15.787Z,93848.11
2019-05-01T05:49:45.282Z,93850.61
2019-05-01T05:52:35.793Z,93846.38
2019-05-01T05:55:06.715Z,93845.67
2019-05-01T05:57:43.116Z,93846.11
2019-05-01T06:00:20.665Z,93838.12
2019-05-01T06:02:54.052Z,93843.28
2019-05-01T06:05:43.295Z,93848.69
2019-05-01T06:08:16.331Z,93844.17
2019-05-01T06:10:48.534Z,93843.48
2019-05-01T06:13:35.370Z,93846.54
2019-05-01T06:16:05.576Z,93845.78
2019-05-01T06:18:48.284Z,93844.23
2019-05-01T06:21:19.164Z,93836.67
2019-05-01T06:24:06.611Z,93844.30
2019-05-01T06:26:37.421Z,93838.57
2019-05-01T06:29:05.396Z,93833.18
2019-05-01T06:31:34.966Z,93838.42
2019-05-01T06:34:03.841Z,93827.39
2019-05-01T06:36:33.331Z,93828.70
2019-05-01T06:39:06.844Z,93827.84
2019-05-01T06:41:42.314Z,93831.25
2019-05-01T06:44:12.678Z,93829.72
2019-05-01T06:46:52.706Z,93833.14
2019-05-01T06:49:35.231Z,93829.42
2019-05-01T06:52:06.238Z,93827.77
2019-05-01T06:54:36.422Z,93823.86
2019-05-01T06:57:05.697Z,93829.02
2019-05-01T06:59:37.483Z,93826.84
2019-05-01T07:02:07.660Z,93826.14
2019-05-01T07:04:37.766Z,93818.33
2019-05-01T07:07:09.864Z,93820.53
2019-05-01T07:09:38.810Z,93824.16
2019-05-01T07:12:09.436Z,93821.05
2019-05-01T07:14:38.513Z,93821.78
2019-05-01T07:17:09.028Z,93819.98
2019-05-01T07:19:57.668Z,93817.59
2019-05-01T07:22:26.254Z,93819.24
2019-05-01T07:24:58.885Z,93817.98
2019-05-01T07:27:25.480Z,93821.98
2019-05-01T07:29:56.341Z,93820.94
2019-05-01T07:32:24.834Z,93818.16
2019-05-01T07:34:56.933Z,93823.31
2019-05-01T07:37:25.842Z,93817.21
2019-05-01T07:39:54.110Z,93809.02
2019-05-01T07:42:26.777Z,93808.12
2019-05-01T07:44:58.615Z,93809.55
2019-05-01T07:47:32.027Z,93813.31
2019-05-01T07:50:03.633Z,93808.53
2019-05-01T07:52:32.767Z,93804.97
2019-05-01T07:55:01.338Z,93806.05
2019-05-01T07:57:34.239Z,93807.02
2019-05-01T08:00:03.728Z,93811.67
2019-05-01T08:02:33.032Z,93803.39
2019-05-01T08:05:04.973Z,93801.52
2019-05-01T08:07:33.591Z,93798.84
2019-05-01T08:10:02.507Z,93805.66
2019-05-01T08:12:31.006Z,93808.27
2019-05-01T08:14:59.508Z,93804.09
2019-05-01T08:17:29.680Z,93805.34
2019-05-01T08:20:02.922Z,93809.75
2019-05-01T08:22:37.123Z,93804.83
2019-05-01T08:25:03.387Z,93806.96
2019-05-01T08:27:56.268Z,93805.08
2019-05-01T08:30:26.053Z,93807.23
2019-05-01T08:33:02.357Z,93797.58
2019-05-01T08:35:31.682Z,93792.67
2019-05-01T08:38:01.169Z,93795.30
2019-05-01T08:40:29.766Z,93789.67
2019-05-01T08:42:58.241Z,93792.17
2019-05-01T08:45:42.383Z,93791.94
2019-05-01T08:48:12.024Z,93797.03
2019-05-01T08:50:40.553Z,93790.92
2019-05-01T08:53:09.205Z,93802.20
2019-05-01T08:55:39.801Z,93794.59
2019-05-01T08:58:08.805Z,93800.72
2019-05-01T09:00:41.178Z,93799.59
2019-05-01T09:03:08.940Z,93799.72
2019-05-01T09:05:37.464Z,93790.18
2019-05-01T09:08:06.131Z,93785.94
2019-05-01T09:10:34.635Z,93788.98
2019-05-01T09:13:03.167Z,93786.97
2019-05-01T09:15:31.722Z,93776.48
2019-05-01T09:18:00.172Z,93786.23
2019-05-01T09:20:29.925Z,93782.58
2019-05-01T09:22:58.435Z,93784.91
2019-05-01T09:25:30.962Z,93782.70
2019-05-01T09:28:05.696Z,93766.72
2019-05-01T09:30:41.843Z,93771.41
2019-05-01T09:33:10.699Z,93776.97
2019-05-01T09:35:40.305Z,93774.20
2019-05-01T09:38:09.481Z,93778.32
2019-05-01T09:40:38.121Z,93777.43
2019-05-01T09:43:06.648Z,93773.42
2019-05-01T09:45:35.278Z,93776.98
2019-05-01T09:48:04.318Z,93778.83
2019-05-01T09:50:34.559Z,93772.02
2019-05-01T09:53:19.721Z,93776.22
2019-05-01T09:55:52.722Z,93777.16
2019-05-01T09:58:21.226Z,93769.45
2019-05-01T10:00:52.812Z,93773.02
2019-05-01T10:03:21.673Z,93773.65
2019-05-01T10:05:50.103Z,93776.42
2019-05-01T10:08:18.666Z,93778.34
2019-05-01T10:10:47.323Z,93764.88
2019-05-01T10:13:17.622Z,93777.37
2019-05-01T10:15:46.074Z,93764.97
2019-05-01T10:18:14.522Z,93762.15
2019-05-01T10:20:42.952Z,93763.30
2019-05-01T10:23:13.244Z,93771.29
2019-05-01T10:25:47.922Z,93766.30
2019-05-01T10:28:18.030Z,93764.98
2019-05-01T10:30:48.131Z,93756.21
2019-05-01T10:33:21.009Z,93755.71
2019-05-01T10:35:53.701Z,93757.03
2019-05-01T10:38:22.205Z,93751.10
2019-05-01T10:40:50.705Z,93764.89
2019-05-01T10:43:19.195Z,93741.03
2019-05-01T10:45:47.706Z,93751.42
2019-05-01T10:48:16.192Z,93738.75
2019-05-01T10:50:44.645Z,93740.95
2019-05-01T10:53:13.070Z,93731.90
2019-05-01T10:55:41.524Z,93724.80
2019-05-01T10:58:12.722Z,93731.36
2019-05-01T11:00:42.054Z,93726.70
2019-05-01T11:03:10.776Z,93723.65
2019-05-01T11:05:39.282Z,93722.72
2019-05-01T11:08:07.873Z,93716.31
2019-05-01T11:10:36.288Z,93717.38
2019-05-01T11:13:07.656Z,93718.17
2019-05-01T11:15:34.979Z,93720.31
2019-05-01T11:18:03.407Z,93714.66
2019-05-01T11:20:31.864Z,93714.39
2019-05-01T11:23:00.289Z,93711.20
2019-05-01T11:25:29.187Z,93706.92
2019-05-01T11:27:57.632Z,93718.30
2019-05-01T11:30:26.232Z,93711.89
2019-05-01T11:33:05.305Z,93708.71
2019-05-01T11:35:51.750Z,93708.08
2019-05-01T11:38:24.896Z,93698.98
2019-05-01T11:40:54.966Z,93703.69
2019-05-01T11:43:23.415Z,93709.06
2019-05-01T11:45:51.968Z,93702.09
2019-05-01T11:48:20.392Z,93699.95
2019-05-01T11:50:48.926Z,93696.12
2019-05-01T11:53:17.361Z,93692.93
2019-05-01T11:55:45.874Z,93693.14
2019-05-01T11:58:14.323Z,93695.64
2019-05-01T12:00:44.402Z,93693.95
2019-05-01T12:03:12.926Z,93686.22
2019-05-01T12:05:41.430Z,93698.67
2019-05-01T12:08:10.035Z,93695.37
2019-05-01T12:10:38.464Z,93696.86
2019-05-01T12:13:06.948Z,93695.55
2019-05-01T12:15:35.482Z,93688.83
2019-05-01T12:18:04.005Z,93688.04
2019-05-01T12:20:32.543Z,93687.58
2019-05-01T12:23:00.981Z,93691.48
2019-05-01T12:25:29.468Z,93685.23
2019-05-01T12:27:58.088Z,93684.53
2019-05-01T12:30:26.588Z,93679.62
2019-05-01T12:32:55.097Z,93681.24
2019-05-01T12:35:23.665Z,93677.30
2019-05-01T12:37:55.462Z,93679.09
2019-05-01T12:40:24.290Z,93668.16
2019-05-01T12:42:52.718Z,93666.18
2019-05-01T12:45:21.572Z,93654.77
2019-05-01T12:47:51.696Z,93667.11
2019-05-01T12:50:20.370Z,93659.94
2019-05-01T12:52:53.545Z,93660.66
2019-05-01T12:55:39.518Z,93653.86
2019-05-01T12:58:08.160Z,93655.88
2019-05-01T13:00:50.046Z,93649.84
2019-05-01T13:03:18.515Z,93654.76
2019-05-01T13:05:47.035Z,93649.71
2019-05-01T13:08:15.520Z,93649.74
2019-05-01T13:10:44.117Z,93641.40
2019-05-01T13:13:12.645Z,93645.65
2019-05-01T13:15:41.138Z,93638.45
2019-05-01T13:18:09.660Z,93643.08
2019-05-01T13:20:38.193Z,93636.50
2019-05-01T13:23:06.694Z,93634.47
2019-05-01T13:25:35.142Z,93637.84
2019-05-01T13:28:08.818Z,93631.27
2019-05-01T13:30:38.939Z,93624.11
2019-05-01T13:33:07.400Z,93634.14
2019-05-01T13:35:35.964Z,93627.36
2019-05-01T13:38:04.618Z,93622.34
2019-05-01T13:40:33.117Z,93625.46
2019-05-01T13:43:01.633Z,93621.01
2019-05-01T13:45:30.458Z,93619.23
2019-05-01T13:47:59.925Z,93613.52
2019-05-01T13:50:28.443Z,93608.83
2019-05-01T13:52:56.927Z,93613.31
2019-05-01T13:55:25.424Z,93608.91
2019-05-01T13:57:53.897Z,93605.75
2019-05-01T14:00:23.234Z,93608.22
2019-05-01T14:02:51.814Z,93598.93
2019-05-01T14:05:20.625Z,93596.56
2019-05-01T14:07:49.062Z,93592.56
2019-05-01T14:10:17.973Z,93590.81
2019-05-01T14:12:46.418Z,93592.14
2019-05-01T14:15:15.047Z,93592.14
2019-05-01T14:17:43.588Z,93587.94
2019-05-01T14:20:25.795Z,93586.39
2019-05-01T14:23:11.246Z,93586.39
2019-05-01T14:25:57.905Z,93582.92
2019-05-01T14:28:26.439Z,93581.81
2019-05-01T14:30:54.938Z,93584.59
2019-05-01T14:33:23.456Z,93576.03
2019-05-01T14:35:51.981Z,93572.87
2019-05-01T14:38:20.588Z,93576.44
2019-05-01T14:40:49.034Z,93569.80
2019-05-01T14:43:17.531Z,93570.38
2019-05-01T14:45:46.051Z,93574.02
2019-05-01T14:48:14.546Z,93569.45
2019-05-01T14:50:43.074Z,93564.84
2019-05-01T14:53:11.655Z,93556.88
2019-05-01T14:55:40.209Z,93556.59
2019-05-01T14:58:08.840Z,93557.80
2019-05-01T15:00:37.427Z,93557.50
2019-05-01T15:03:06.026Z,93562.19
2019-05-01T15:05:35.039Z,93550.30
2019-05-01T15:08:03.825Z,93550.83
2019-05-01T15:10:32.316Z,93549.49
2019-05-01T15:13:02.418Z,93551.31
2019-05-01T15:15:38.027Z,93544.40
2019-05-01T15:18:24.510Z,93540.63
2019-05-01T15:20:53.006Z,93544.02
2019-05-01T15:23:21.590Z,93540.33
2019-05-01T15:25:50.096Z,93540.22
2019-05-01T15:28:18.523Z,93539.83
2019-05-01T15:30:46.969Z,93540.63
2019-05-01T15:33:15.421Z,93541.37
2019-05-01T15:35:43.878Z,93536.87
2019-05-01T15:38:12.312Z,93537.57
2019-05-01T15:40:57.652Z,93538.86
2019-05-01T15:43:30.790Z,93530.98
2019-05-01T15:45:59.550Z,93534.44
2019-05-01T15:48:28.400Z,93531.55
2019-05-01T15:50:56.934Z,93529.52
2019-05-01T15:53:25.310Z,93533.98
2019-05-01T15:55:53.760Z,93526.96
2019-05-01T15:58:22.266Z,93527.93
2019-05-01T16:00:51.030Z,93528.72
2019-05-01T16:03:19.493Z,93522.95
2019-05-01T16:05:48.064Z,93527.24
2019-05-01T16:08:16.633Z,93520.98
2019-05-01T16:10:54.149Z,93517.88
2019-05-01T16:13:22.577Z,93523.00
2019-05-01T16:15:51.111Z,93519.47
2019-05-01T16:18:19.559Z,93526.39
2019-05-01T16:20:47.980Z,93521.98
2019-05-01T16:23:16.509Z,93522.98
2019-05-01T16:25:45.043Z,93519.64
2019-05-01T16:28:13.473Z,93521.04
2019-05-01T16:30:41.907Z,93514.77
2019-05-01T16:33:10.439Z,93516.70
2019-05-01T16:35:38.901Z,93520.14
2019-05-01T16:38:09.036Z,93526.14
2019-05-01T16:40:42.146Z,93524.95
2019-05-01T16:43:11.892Z,93517.00
2019-05-01T16:45:40.388Z,93517.66
2019-05-01T16:48:08.987Z,93520.74
2019-05-01T16:50:37.472Z,93517.31
2019-05-01T16:53:05.886Z,93516.27
2019-05-01T16:55:34.415Z,93517.50
2019-05-01T16:58:03.984Z,93509.36
2019-05-01T17:01:03.196Z,93507.52
2019-05-01T17:03:49.201Z,93506.99
2019-05-01T17:06:31.195Z,93512.00
2019-05-01T17:09:06.867Z,93502.36
2019-05-01T17:11:35.973Z,93508.69
2019-05-01T17:14:06.233Z,93505.33
2019-05-01T17:16:34.826Z,93504.63
2019-05-01T17:19:04.128Z,93509.27
2019-05-01T17:21:32.559Z,93510.05
2019-05-01T17:24:01.051Z,93512.70
2019-05-01T17:26:29.571Z,93510.97
2019-05-01T17:28:57.997Z,93507.96
2019-05-01T17:31:28.099Z,93506.62
2019-05-01T17:33:56.866Z,93511.23
2019-05-01T17:36:25.581Z,93514.91
2019-05-01T17:38:54.074Z,93511.23
2019-05-01T17:41:26.550Z,93509.27
2019-05-01T17:43:52.774Z,93512.08
2019-05-01T17:46:21.374Z,93509.23
2019-05-01T17:48:49.903Z,93509.68
2019-05-01T17:51:19.976Z,93508.26
2019-05-01T17:53:48.709Z,93506.15
2019-05-01T17:56:20.557Z,93510.41
2019-05-01T17:58:47.499Z,93505.75
2019-05-01T18:01:20.677Z,93508.03
2019-05-01T18:03:50.800Z,93509.52
2019-05-01T18:06:21.032Z,93512.38
2019-05-01T18:09:01.875Z,93511.32
2019-05-01T18:11:19.815Z,93513.16
2019-05-01T18:13:48.308Z,93513.05
2019-05-01T18:16:16.826Z,93508.23
2019-05-01T18:18:45.329Z,93510.77
2019-05-01T18:21:14.288Z,93511.47
2019-05-01T18:24:00.608Z,93510.86
2019-05-01T18:26:43.439Z,93509.72
2019-05-01T18:29:11.334Z,93508.66
2019-05-01T18:31:39.757Z,93513.27
2019-05-01T18:34:08.286Z,93508.62
2019-05-01T18:36:38.368Z,93513.65
2019-05-01T18:39:25.883Z,93514.04
2019-05-01T18:41:55.199Z,93517.75
2019-05-01T18:44:23.634Z,93518.34
2019-05-01T18:46:52.305Z,93515.76
2019-05-01T18:49:20.754Z,93528.30
2019-05-01T18:51:49.215Z,93520.55
2019-05-01T18:54:17.731Z,93523.82
2019-05-01T18:56:46.263Z,93522.58
2019-05-01T18:59:14.924Z,93525.36
2019-05-01T19:01:43.927Z,93532.23
2019-05-01T19:04:18.360Z,93532.52
2019-05-01T19:06:45.147Z,93532.77
2019-05-01T19:09:15.300Z,93536.88
2019-05-01T19:11:43.917Z,93540.61
2019-05-01T19:14:12.802Z,93543.28
2019-05-01T19:16:45.351Z,93549.39
2019-05-01T19:19:11.696Z,93544.45
2019-05-01T19:21:41.914Z,93540.44
2019-05-01T19:24:10.780Z,93546.95
2019-05-01T19:26:42.569Z,93549.09
2019-05-01T19:29:09.814Z,93549.06
2019-05-01T19:31:38.337Z,93546.16
2019-05-01T19:34:06.913Z,93544.04
2019-05-01T19:36:35.468Z,93550.75
2019-05-01T19:39:06.927Z,93553.69
2019-05-01T19:41:38.194Z,93550.11
2019-05-01T19:44:07.162Z,93547.55
2019-05-01T19:46:35.679Z,93553.55
2019-05-01T19:49:04.273Z,93557.70
2019-05-01T19:51:33.246Z,93555.55
2019-05-01T19:54:01.886Z,93554.33
2019-05-01T19:56:30.414Z,93549.20
2019-05-01T19:58:58.915Z,93547.92
2019-05-01T20:01:27.880Z,93542.88
2019-05-01T20:03:56.377Z,93548.66
2019-05-01T20:06:24.914Z,93553.55
2019-05-01T20:08:53.368Z,93544.28
2019-05-01T20:11:21.897Z,93543.90
2019-05-01T20:13:50.428Z,93545.90
2019-05-01T20:16:19.390Z,93543.48
2019-05-01T20:18:48.054Z,93542.45
2019-05-01T20:21:16.572Z,93541.45
2019-05-01T20:23:45.117Z,93542.64
2019-05-01T20:26:13.665Z,93542.50
2019-05-01T20:28:42.177Z,93544.55
2019-05-01T20:31:10.625Z,93543.13
2019-05-01T20:33:43.923Z,93538.27
2019-05-01T20:36:09.339Z,93542.70
2019-05-01T20:38:37.886Z,93542.51
2019-05-01T20:41:10.353Z,93531.10
2019-05-01T20:43:38.041Z,93542.34
2019-05-01T20:46:07.291Z,93540.41
2019-05-01T20:48:38.425Z,93532.10
2019-05-01T20:51:07.268Z,93537.84
2019-05-01T20:53:35.734Z,93540.89
2019-05-01T20:56:05.947Z,93530.08
2019-05-01T20:58:34.475Z,93533.32
2019-05-01T21:01:04.010Z,93533.28
2019-05-01T21:03:32.564Z,93531.11
2019-05-01T21:06:07.907Z,93529.41
2019-05-01T21:08:39.252Z,93529.51
2019-05-01T21:11:11.097Z,93532.05
2019-05-01T21:13:39.203Z,93525.59
2019-05-01T21:16:07.617Z,93521.22
2019-05-01T21:18:36.066Z,93530.15
2019-05-01T21:21:04.477Z,93523.75
2019-05-01T21:23:33.441Z,93517.79
2019-05-01T21:26:03.807Z,93523.06
2019-05-01T21:28:33.916Z,93521.98
2019-05-01T21:31:03.921Z,93513.14
2019-05-01T21:33:33.937Z,93521.84
2019-05-01T21:36:04.858Z,93520.08
2019-05-01T21:38:33.097Z,93512.50
2019-05-01T21:41:02.792Z,93515.66
2019-05-01T21:43:33.270Z,93513.37
2019-05-01T21:46:03.801Z,93511.11
2019-05-01T21:48:33.382Z,93507.31
2019-05-01T21:51:05.902Z,93509.36
2019-05-01T21:53:32.780Z,93514.81
2019-05-01T21:56:02.189Z,93510.89
2019-05-01T21:58:33.398Z,93513.55
2019-05-01T22:01:01.798Z,93511.02
2019-05-01T22:03:30.244Z,93511.38
2019-05-01T22:05:58.698Z,93509.79
2019-05-01T22:08:27.788Z,93511.12
2019-05-01T22:10:57.688Z,93518.91
2019-05-01T22:13:26.806Z,93511.38
2019-05-01T22:16:03.022Z,93510.44
2019-05-01T22:18:36.260Z,93508.48
2019-05-01T22:21:06.705Z,93512.72
2019-05-01T22:23:55.050Z,93508.86
2019-05-01T22:26:24.037Z,93501.45
2019-05-01T22:28:54.948Z,93513.09
2019-05-01T22:31:40.992Z,93509.38
2019-05-01T22:34:27.464Z,93510.05
2019-05-01T22:36:58.683Z,93503.21
2019-05-01T22:39:29.095Z,93509.57
2019-05-01T22:41:57.598Z,93505.06
2019-05-01T22:44:26.079Z,93507.39
2019-05-01T22:46:54.613Z,93510.80
2019-05-01T22:49:23.183Z,93510.08
2019-05-01T22:51:51.588Z,93501.17
2019-05-01T22:54:20.212Z,93500.61
2019-05-01T22:56:48.923Z,93498.63
2019-05-01T22:59:17.342Z,93504.22
2019-05-01T23:01:49.287Z,93506.79
2019-05-01T23:04:18.995Z,93505.17
2019-05-01T23:06:47.567Z,93500.84
2019-05-01T23:09:17.518Z,93495.94
2019-05-01T23:11:47.023Z,93494.48
2019-05-01T23:14:17.541Z,93497.11
2019-05-01T23:16:48.060Z,93496.05
2019-05-01T23:19:16.545Z,93488.14
2019-05-01T23:21:45.801Z,93491.70
2019-05-01T23:24:15.384Z,93484.36
2019-05-01T23:26:48.001Z,93485.98
2019-05-01T23:29:14.181Z,93478.43
2019-05-01T23:31:42.670Z,93477.77
2019-05-01T23:34:11.164Z,93477.30
2019-05-01T23:36:39.679Z,93472.64
2019-05-01T23:39:09.203Z,93474.44
2019-05-01T23:41:45.508Z,93470.42
2019-05-01T23:44:08.210Z,93464.31
2019-05-01T23:46:36.626Z,93469.22
2019-05-01T23:49:05.140Z,93462.86
2019-05-01T23:51:33.554Z,93466.35
2019-05-01T23:54:02.006Z,93464.80
2019-05-01T23:56:31.180Z,93461.13
2019-05-01T23:59:00.610Z,93464.66
